sensor_id;sensor_type;location;lat;lon;timestamp;temperature;humidity
73277;DHT22;61501;43.316;5.372;2023-03-11T00:02:13;13.50;92.60
73277;DHT22;61501;43.316;5.372;2023-03-11T00:04:39;13.50;92.70
73277;DHT22;61501;43.316;5.372;2023-03-11T00:07:06;13.50;92.60
73277;DHT22;61501;43.316;5.372;2023-03-11T00:09:33;13.60;92.80
73277;DHT22;61501;43.316;5.372;2023-03-11T00:11:59;13.60;92.80
73277;DHT22;61501;43.316;5.372;2023-03-11T00:14:25;13.60;93.00
73277;DHT22;61501;43.316;5.372;2023-03-11T00:16:51;13.60;92.80
73277;DHT22;61501;43.316;5.372;2023-03-11T00:19:16;13.60;92.70
73277;DHT22;61501;43.316;5.372;2023-03-11T00:21:42;13.70;92.90
73277;DHT22;61501;43.316;5.372;2023-03-11T00:24:08;13.60;92.90
73277;DHT22;61501;43.316;5.372;2023-03-11T00:26:33;13.70;93.00
73277;DHT22;61501;43.316;5.372;2023-03-11T00:28:59;13.70;93.00
73277;DHT22;61501;43.316;5.372;2023-03-11T00:31:25;13.70;93.20
73277;DHT22;61501;43.316;5.372;2023-03-11T00:33:52;13.70;93.80
73277;DHT22;61501;43.316;5.372;2023-03-11T00:36:22;13.70;93.50
73277;DHT22;61501;43.316;5.372;2023-03-11T00:38:49;13.70;93.70
73277;DHT22;61501;43.316;5.372;2023-03-11T00:41:17;13.70;93.60
73277;DHT22;61501;43.316;5.372;2023-03-11T00:43:42;13.80;93.90
73277;DHT22;61501;43.316;5.372;2023-03-11T00:46:08;13.80;93.90
73277;DHT22;61501;43.316;5.372;2023-03-11T00:48:34;13.90;94.00
73277;DHT22;61501;43.316;5.372;2023-03-11T00:51:00;13.90;93.70
73277;DHT22;61501;43.316;5.372;2023-03-11T00:53:25;13.80;94.10
73277;DHT22;61501;43.316;5.372;2023-03-11T00:55:51;13.70;94.60
73277;DHT22;61501;43.316;5.372;2023-03-11T00:58:17;13.80;94.80
73277;DHT22;61501;43.316;5.372;2023-03-11T01:00:42;13.80;95.50
73277;DHT22;61501;43.316;5.372;2023-03-11T01:03:08;13.80;95.70
73277;DHT22;61501;43.316;5.372;2023-03-11T01:05:34;13.80;96.10
73277;DHT22;61501;43.316;5.372;2023-03-11T01:08:00;13.80;97.00
73277;DHT22;61501;43.316;5.372;2023-03-11T01:10:28;13.80;97.60
73277;DHT22;61501;43.316;5.372;2023-03-11T01:12:54;13.80;97.70
73277;DHT22;61501;43.316;5.372;2023-03-11T01:15:27;13.80;97.80
73277;DHT22;61501;43.316;5.372;2023-03-11T01:17:53;13.80;98.30
73277;DHT22;61501;43.316;5.372;2023-03-11T01:20:21;13.80;98.90
73277;DHT22;61501;43.316;5.372;2023-03-11T01:22:47;13.70;98.50
73277;DHT22;61501;43.316;5.372;2023-03-11T01:25:14;13.70;99.10
73277;DHT22;61501;43.316;5.372;2023-03-11T01:27:40;13.80;99.90
73277;DHT22;61501;43.316;5.372;2023-03-11T01:30:06;13.80;99.90
73277;DHT22;61501;43.316;5.372;2023-03-11T01:32:32;13.80;99.90
73277;DHT22;61501;43.316;5.372;2023-03-11T01:34:58;13.80;99.90
73277;DHT22;61501;43.316;5.372;2023-03-11T01:37:23;13.80;99.90
73277;DHT22;61501;43.316;5.372;2023-03-11T01:39:49;13.80;99.90
73277;DHT22;61501;43.316;5.372;2023-03-11T01:42:15;13.80;99.90
73277;DHT22;61501;43.316;5.372;2023-03-11T01:44:41;13.80;99.90
73277;DHT22;61501;43.316;5.372;2023-03-11T01:49:36;13.80;99.90
73277;DHT22;61501;43.316;5.372;2023-03-11T01:52:06;13.80;99.90
73277;DHT22;61501;43.316;5.372;2023-03-11T01:54:35;13.80;99.90
73277;DHT22;61501;43.316;5.372;2023-03-11T01:57:04;13.80;99.90
73277;DHT22;61501;43.316;5.372;2023-03-11T01:59:37;13.80;99.90
73277;DHT22;61501;43.316;5.372;2023-03-11T02:04:47;13.90;99.90
73277;DHT22;61501;43.316;5.372;2023-03-11T02:07:14;13.90;99.90
73277;DHT22;61501;43.316;5.372;2023-03-11T02:09:39;13.90;99.90
73277;DHT22;61501;43.316;5.372;2023-03-11T02:12:08;13.90;99.90
73277;DHT22;61501;43.316;5.372;2023-03-11T02:14:45;13.90;99.90
73277;DHT22;61501;43.316;5.372;2023-03-11T02:17:12;14.00;99.90
73277;DHT22;61501;43.316;5.372;2023-03-11T02:22:25;14.20;99.90
73277;DHT22;61501;43.316;5.372;2023-03-11T02:27:40;14.30;99.90
73277;DHT22;61501;43.316;5.372;2023-03-11T02:30:08;14.50;99.90
73277;DHT22;61501;43.316;5.372;2023-03-11T02:32:35;14.50;99.90
73277;DHT22;61501;43.316;5.372;2023-03-11T02:35:01;14.50;99.90
73277;DHT22;61501;43.316;5.372;2023-03-11T02:37:27;14.50;99.90
73277;DHT22;61501;43.316;5.372;2023-03-11T02:39:54;14.60;99.90
73277;DHT22;61501;43.316;5.372;2023-03-11T02:42:31;14.60;99.90
73277;DHT22;61501;43.316;5.372;2023-03-11T02:47:25;14.70;99.90
73277;DHT22;61501;43.316;5.372;2023-03-11T02:49:51;14.70;99.90
73277;DHT22;61501;43.316;5.372;2023-03-11T02:52:19;14.70;99.90
73277;DHT22;61501;43.316;5.372;2023-03-11T02:54:45;14.70;99.90
73277;DHT22;61501;43.316;5.372;2023-03-11T02:57:11;14.70;99.90
73277;DHT22;61501;43.316;5.372;2023-03-11T02:59:36;14.60;99.90
73277;DHT22;61501;43.316;5.372;2023-03-11T03:02:02;14.60;99.90
73277;DHT22;61501;43.316;5.372;2023-03-11T03:04:28;14.60;99.90
73277;DHT22;61501;43.316;5.372;2023-03-11T03:06:53;14.70;99.90
73277;DHT22;61501;43.316;5.372;2023-03-11T03:09:19;14.60;99.90
73277;DHT22;61501;43.316;5.372;2023-03-11T03:11:45;14.70;99.90
73277;DHT22;61501;43.316;5.372;2023-03-11T03:14:10;14.60;99.90
73277;DHT22;61501;43.316;5.372;2023-03-11T03:16:36;14.60;99.90
73277;DHT22;61501;43.316;5.372;2023-03-11T03:19:02;14.70;99.90
73277;DHT22;61501;43.316;5.372;2023-03-11T03:21:27;14.70;99.90
73277;DHT22;61501;43.316;5.372;2023-03-11T03:23:53;14.60;99.90
73277;DHT22;61501;43.316;5.372;2023-03-11T03:26:18;14.70;99.90
73277;DHT22;61501;43.316;5.372;2023-03-11T03:28:44;14.70;99.90
73277;DHT22;61501;43.316;5.372;2023-03-11T03:31:10;14.80;99.90
73277;DHT22;61501;43.316;5.372;2023-03-11T03:33:36;14.80;99.90
73277;DHT22;61501;43.316;5.372;2023-03-11T03:36:10;14.80;99.90
73277;DHT22;61501;43.316;5.372;2023-03-11T03:38:36;14.80;99.90
73277;DHT22;61501;43.316;5.372;2023-03-11T03:41:02;14.80;99.90
73277;DHT22;61501;43.316;5.372;2023-03-11T03:43:27;14.80;99.90
73277;DHT22;61501;43.316;5.372;2023-03-11T03:46:04;14.80;99.90
73277;DHT22;61501;43.316;5.372;2023-03-11T03:48:29;14.80;99.90
73277;DHT22;61501;43.316;5.372;2023-03-11T03:50:55;14.80;99.90
73277;DHT22;61501;43.316;5.372;2023-03-11T03:53:21;14.80;99.90
73277;DHT22;61501;43.316;5.372;2023-03-11T03:55:47;14.80;99.90
73277;DHT22;61501;43.316;5.372;2023-03-11T03:58:14;14.80;99.90
73277;DHT22;61501;43.316;5.372;2023-03-11T04:00:39;14.80;99.90
73277;DHT22;61501;43.316;5.372;2023-03-11T04:03:05;14.80;99.90
73277;DHT22;61501;43.316;5.372;2023-03-11T04:05:31;14.80;99.90
73277;DHT22;61501;43.316;5.372;2023-03-11T04:07:57;14.80;99.90
73277;DHT22;61501;43.316;5.372;2023-03-11T04:10:22;14.80;99.90
73277;DHT22;61501;43.316;5.372;2023-03-11T04:12:48;14.80;99.90
73277;DHT22;61501;43.316;5.372;2023-03-11T04:15:14;14.80;99.90
73277;DHT22;61501;43.316;5.372;2023-03-11T04:17:39;14.70;99.90
73277;DHT22;61501;43.316;5.372;2023-03-11T04:20:05;14.70;99.90
73277;DHT22;61501;43.316;5.372;2023-03-11T04:22:33;14.80;99.90
73277;DHT22;61501;43.316;5.372;2023-03-11T04:24:59;14.70;99.90
73277;DHT22;61501;43.316;5.372;2023-03-11T04:27:24;14.70;99.90
73277;DHT22;61501;43.316;5.372;2023-03-11T04:29:50;14.80;99.90
73277;DHT22;61501;43.316;5.372;2023-03-11T04:32:16;14.80;99.90
73277;DHT22;61501;43.316;5.372;2023-03-11T04:34:41;14.80;99.90
73277;DHT22;61501;43.316;5.372;2023-03-11T04:37:07;14.90;99.90
73277;DHT22;61501;43.316;5.372;2023-03-11T04:39:32;14.90;99.90
73277;DHT22;61501;43.316;5.372;2023-03-11T04:41:58;15.00;99.90
73277;DHT22;61501;43.316;5.372;2023-03-11T04:44:24;15.00;99.90
73277;DHT22;61501;43.316;5.372;2023-03-11T04:46:50;15.00;99.90
73277;DHT22;61501;43.316;5.372;2023-03-11T04:49:15;14.90;99.90
73277;DHT22;61501;43.316;5.372;2023-03-11T04:51:41;14.90;99.90
73277;DHT22;61501;43.316;5.372;2023-03-11T04:54:07;14.90;99.90
73277;DHT22;61501;43.316;5.372;2023-03-11T04:56:33;14.80;99.90
73277;DHT22;61501;43.316;5.372;2023-03-11T04:58:59;14.90;99.90
73277;DHT22;61501;43.316;5.372;2023-03-11T05:01:25;15.00;99.90
73277;DHT22;61501;43.316;5.372;2023-03-11T05:03:50;15.00;99.90
73277;DHT22;61501;43.316;5.372;2023-03-11T05:06:16;14.90;99.90
73277;DHT22;61501;43.316;5.372;2023-03-11T05:08:42;14.90;99.90
73277;DHT22;61501;43.316;5.372;2023-03-11T05:11:08;14.90;99.90
73277;DHT22;61501;43.316;5.372;2023-03-11T05:13:34;14.90;99.90
73277;DHT22;61501;43.316;5.372;2023-03-11T05:15:59;14.90;99.90
73277;DHT22;61501;43.316;5.372;2023-03-11T05:18:25;15.00;99.90
73277;DHT22;61501;43.316;5.372;2023-03-11T05:20:51;15.00;99.90
73277;DHT22;61501;43.316;5.372;2023-03-11T05:23:18;14.90;99.90
73277;DHT22;61501;43.316;5.372;2023-03-11T05:25:43;14.90;99.90
73277;DHT22;61501;43.316;5.372;2023-03-11T05:28:09;14.90;99.90
73277;DHT22;61501;43.316;5.372;2023-03-11T05:30:35;14.90;99.90
73277;DHT22;61501;43.316;5.372;2023-03-11T05:33:00;14.90;99.90
73277;DHT22;61501;43.316;5.372;2023-03-11T05:35:26;14.80;99.90
73277;DHT22;61501;43.316;5.372;2023-03-11T05:37:52;14.80;99.90
73277;DHT22;61501;43.316;5.372;2023-03-11T05:40:19;14.90;99.90
73277;DHT22;61501;43.316;5.372;2023-03-11T05:42:46;14.90;99.90
73277;DHT22;61501;43.316;5.372;2023-03-11T05:45:11;14.90;99.90
73277;DHT22;61501;43.316;5.372;2023-03-11T05:47:37;14.90;99.90
73277;DHT22;61501;43.316;5.372;2023-03-11T05:50:04;15.00;99.90
73277;DHT22;61501;43.316;5.372;2023-03-11T05:52:29;14.90;99.90
73277;DHT22;61501;43.316;5.372;2023-03-11T05:54:57;14.90;99.90
73277;DHT22;61501;43.316;5.372;2023-03-11T05:57:22;14.90;99.90
73277;DHT22;61501;43.316;5.372;2023-03-11T05:59:48;14.90;99.90
73277;DHT22;61501;43.316;5.372;2023-03-11T06:02:14;14.90;99.90
73277;DHT22;61501;43.316;5.372;2023-03-11T06:04:40;14.90;99.90
73277;DHT22;61501;43.316;5.372;2023-03-11T06:07:06;14.90;99.90
73277;DHT22;61501;43.316;5.372;2023-03-11T06:09:31;14.90;99.90
73277;DHT22;61501;43.316;5.372;2023-03-11T06:11:58;14.90;99.90
73277;DHT22;61501;43.316;5.372;2023-03-11T06:14:23;14.90;99.90
73277;DHT22;61501;43.316;5.372;2023-03-11T06:16:49;14.90;99.90
73277;DHT22;61501;43.316;5.372;2023-03-11T06:19:15;14.90;99.90
73277;DHT22;61501;43.316;5.372;2023-03-11T06:21:41;15.00;99.90
73277;DHT22;61501;43.316;5.372;2023-03-11T06:24:06;15.00;99.90
73277;DHT22;61501;43.316;5.372;2023-03-11T06:26:32;15.10;99.90
73277;DHT22;61501;43.316;5.372;2023-03-11T06:28:58;15.20;99.90
73277;DHT22;61501;43.316;5.372;2023-03-11T06:31:25;15.10;99.90
73277;DHT22;61501;43.316;5.372;2023-03-11T06:33:52;15.10;99.90
73277;DHT22;61501;43.316;5.372;2023-03-11T06:36:20;15.20;99.90
73277;DHT22;61501;43.316;5.372;2023-03-11T06:38:47;15.20;99.90
73277;DHT22;61501;43.316;5.372;2023-03-11T06:41:14;15.30;99.90
73277;DHT22;61501;43.316;5.372;2023-03-11T06:43:40;15.20;99.90
73277;DHT22;61501;43.316;5.372;2023-03-11T06:46:24;15.30;99.90
73277;DHT22;61501;43.316;5.372;2023-03-11T06:48:50;15.30;99.90
73277;DHT22;61501;43.316;5.372;2023-03-11T06:51:19;15.30;99.90
73277;DHT22;61501;43.316;5.372;2023-03-11T06:53:54;15.40;99.90
73277;DHT22;61501;43.316;5.372;2023-03-11T06:56:21;15.40;99.90
73277;DHT22;61501;43.316;5.372;2023-03-11T06:58:47;15.40;99.90
73277;DHT22;61501;43.316;5.372;2023-03-11T07:01:18;15.40;99.90
73277;DHT22;61501;43.316;5.372;2023-03-11T07:03:48;15.40;99.90
73277;DHT22;61501;43.316;5.372;2023-03-11T07:06:16;15.40;99.90
73277;DHT22;61501;43.316;5.372;2023-03-11T07:08:42;15.40;99.90
73277;DHT22;61501;43.316;5.372;2023-03-11T07:11:13;15.30;99.90
73277;DHT22;61501;43.316;5.372;2023-03-11T07:13:39;15.30;99.90
73277;DHT22;61501;43.316;5.372;2023-03-11T07:16:08;15.40;99.90
73277;DHT22;61501;43.316;5.372;2023-03-11T07:18:35;15.40;99.90
73277;DHT22;61501;43.316;5.372;2023-03-11T07:21:03;15.50;99.90
73277;DHT22;61501;43.316;5.372;2023-03-11T07:23:29;15.60;99.90
73277;DHT22;61501;43.316;5.372;2023-03-11T07:25:54;15.60;99.90
73277;DHT22;61501;43.316;5.372;2023-03-11T07:28:22;15.60;99.90
73277;DHT22;61501;43.316;5.372;2023-03-11T07:30:48;15.60;99.90
73277;DHT22;61501;43.316;5.372;2023-03-11T07:33:14;15.60;99.90
73277;DHT22;61501;43.316;5.372;2023-03-11T07:35:40;15.80;99.90
73277;DHT22;61501;43.316;5.372;2023-03-11T07:38:06;15.90;99.90
73277;DHT22;61501;43.316;5.372;2023-03-11T07:40:31;15.90;99.90
73277;DHT22;61501;43.316;5.372;2023-03-11T07:42:57;15.90;99.90
73277;DHT22;61501;43.316;5.372;2023-03-11T07:45:23;16.00;99.90
73277;DHT22;61501;43.316;5.372;2023-03-11T07:47:48;16.20;99.90
73277;DHT22;61501;43.316;5.372;2023-03-11T07:50:14;16.30;99.90
73277;DHT22;61501;43.316;5.372;2023-03-11T07:52:42;16.40;99.90
73277;DHT22;61501;43.316;5.372;2023-03-11T07:55:08;16.50;99.90
73277;DHT22;61501;43.316;5.372;2023-03-11T07:57:33;16.60;99.90
73277;DHT22;61501;43.316;5.372;2023-03-11T07:59:59;16.60;99.90
73277;DHT22;61501;43.316;5.372;2023-03-11T08:02:25;16.80;99.90
73277;DHT22;61501;43.316;5.372;2023-03-11T08:04:51;16.80;99.90
73277;DHT22;61501;43.316;5.372;2023-03-11T08:07:17;16.90;99.90
73277;DHT22;61501;43.316;5.372;2023-03-11T08:09:42;16.80;99.90
73277;DHT22;61501;43.316;5.372;2023-03-11T08:12:08;16.90;99.90
73277;DHT22;61501;43.316;5.372;2023-03-11T08:14:34;17.00;99.90
73277;DHT22;61501;43.316;5.372;2023-03-11T08:16:59;17.00;99.90
73277;DHT22;61501;43.316;5.372;2023-03-11T08:19:25;17.10;99.90
73277;DHT22;61501;43.316;5.372;2023-03-11T08:21:51;17.10;99.90
73277;DHT22;61501;43.316;5.372;2023-03-11T08:24:16;17.20;99.90
73277;DHT22;61501;43.316;5.372;2023-03-11T08:26:42;17.20;99.90
73277;DHT22;61501;43.316;5.372;2023-03-11T08:29:08;17.10;99.90
73277;DHT22;61501;43.316;5.372;2023-03-11T08:31:34;17.20;99.90
73277;DHT22;61501;43.316;5.372;2023-03-11T08:34:05;17.30;99.90
73277;DHT22;61501;43.316;5.372;2023-03-11T08:36:32;17.40;99.90
73277;DHT22;61501;43.316;5.372;2023-03-11T08:38:58;17.40;99.90
73277;DHT22;61501;43.316;5.372;2023-03-11T08:41:24;17.20;99.90
73277;DHT22;61501;43.316;5.372;2023-03-11T08:43:50;16.90;99.90
73277;DHT22;61501;43.316;5.372;2023-03-11T08:48:50;16.10;99.90
73277;DHT22;61501;43.316;5.372;2023-03-11T08:51:16;16.00;99.90
73277;DHT22;61501;43.316;5.372;2023-03-11T08:53:42;16.00;99.90
73277;DHT22;61501;43.316;5.372;2023-03-11T08:56:08;16.00;99.90
73277;DHT22;61501;43.316;5.372;2023-03-11T08:58:34;16.10;99.90
73277;DHT22;61501;43.316;5.372;2023-03-11T09:01:01;16.20;99.90
73277;DHT22;61501;43.316;5.372;2023-03-11T09:03:27;16.20;99.90
73277;DHT22;61501;43.316;5.372;2023-03-11T09:05:59;16.20;99.90
73277;DHT22;61501;43.316;5.372;2023-03-11T09:08:26;16.30;99.90
73277;DHT22;61501;43.316;5.372;2023-03-11T09:10:52;16.30;99.90
73277;DHT22;61501;43.316;5.372;2023-03-11T09:13:17;16.30;99.90
73277;DHT22;61501;43.316;5.372;2023-03-11T09:15:51;16.40;99.90
73277;DHT22;61501;43.316;5.372;2023-03-11T09:18:17;16.40;99.90
73277;DHT22;61501;43.316;5.372;2023-03-11T09:20:44;16.30;99.90
73277;DHT22;61501;43.316;5.372;2023-03-11T09:23:12;16.30;99.90
73277;DHT22;61501;43.316;5.372;2023-03-11T09:25:39;16.30;99.90
73277;DHT22;61501;43.316;5.372;2023-03-11T09:28:05;16.30;99.90
73277;DHT22;61501;43.316;5.372;2023-03-11T09:30:31;16.40;99.90
73277;DHT22;61501;43.316;5.372;2023-03-11T09:32:56;16.50;99.90
73277;DHT22;61501;43.316;5.372;2023-03-11T09:35:22;16.50;99.90
73277;DHT22;61501;43.316;5.372;2023-03-11T09:37:49;16.70;99.90
73277;DHT22;61501;43.316;5.372;2023-03-11T09:40:17;16.60;99.90
73277;DHT22;61501;43.316;5.372;2023-03-11T09:42:58;16.70;99.90
73277;DHT22;61501;43.316;5.372;2023-03-11T09:45:27;16.50;99.90
73277;DHT22;61501;43.316;5.372;2023-03-11T09:51:30;16.50;99.90
73277;DHT22;61501;43.316;5.372;2023-03-11T09:54:04;16.70;99.90
73277;DHT22;61501;43.316;5.372;2023-03-11T09:56:30;16.60;99.90
73277;DHT22;61501;43.316;5.372;2023-03-11T10:01:39;16.60;99.90
73277;DHT22;61501;43.316;5.372;2023-03-11T10:04:23;16.50;99.90
73277;DHT22;61501;43.316;5.372;2023-03-11T10:06:59;16.50;99.90
73277;DHT22;61501;43.316;5.372;2023-03-11T10:09:42;16.50;99.90
73277;DHT22;61501;43.316;5.372;2023-03-11T10:12:13;16.60;99.90
73277;DHT22;61501;43.316;5.372;2023-03-11T10:28:13;16.50;99.90
73277;DHT22;61501;43.316;5.372;2023-03-11T10:33:38;16.40;99.90
73277;DHT22;61501;43.316;5.372;2023-03-11T10:36:11;16.40;99.90
73277;DHT22;61501;43.316;5.372;2023-03-11T10:38:54;16.50;99.90
73277;DHT22;61501;43.316;5.372;2023-03-11T10:41:29;16.50;99.90
73277;DHT22;61501;43.316;5.372;2023-03-11T10:44:05;16.60;99.90
73277;DHT22;61501;43.316;5.372;2023-03-11T10:46:46;16.60;99.90
73277;DHT22;61501;43.316;5.372;2023-03-11T10:49:16;16.60;99.90
73277;DHT22;61501;43.316;5.372;2023-03-11T10:51:50;16.60;99.90
73277;DHT22;61501;43.316;5.372;2023-03-11T10:54:33;16.60;99.90
73277;DHT22;61501;43.316;5.372;2023-03-11T10:57:04;16.60;99.90
73277;DHT22;61501;43.316;5.372;2023-03-11T10:59:33;16.50;99.90
73277;DHT22;61501;43.316;5.372;2023-03-11T11:02:25;16.50;99.90
73277;DHT22;61501;43.316;5.372;2023-03-11T11:07:48;16.60;99.90
73277;DHT22;61501;43.316;5.372;2023-03-11T11:15:51;16.90;99.90
73277;DHT22;61501;43.316;5.372;2023-03-11T11:18:44;17.00;99.90
73277;DHT22;61501;43.316;5.372;2023-03-11T11:21:35;17.20;99.90
73277;DHT22;61501;43.316;5.372;2023-03-11T11:24:17;17.30;99.90
73277;DHT22;61501;43.316;5.372;2023-03-11T11:27:15;17.20;99.90
73277;DHT22;61501;43.316;5.372;2023-03-11T11:29:41;17.10;99.90
73277;DHT22;61501;43.316;5.372;2023-03-11T11:35:02;17.40;99.90
73277;DHT22;61501;43.316;5.372;2023-03-11T11:37:31;17.50;99.90
73277;DHT22;61501;43.316;5.372;2023-03-11T11:40:04;17.60;99.90
73277;DHT22;61501;43.316;5.372;2023-03-11T11:42:38;17.40;99.90
73277;DHT22;61501;43.316;5.372;2023-03-11T11:45:23;17.30;99.90
73277;DHT22;61501;43.316;5.372;2023-03-11T11:47:58;17.20;99.90
73277;DHT22;61501;43.316;5.372;2023-03-11T11:50:32;17.20;99.90
73277;DHT22;61501;43.316;5.372;2023-03-11T11:55:51;17.30;99.90
73277;DHT22;61501;43.316;5.372;2023-03-11T11:58:18;17.20;99.90
73277;DHT22;61501;43.316;5.372;2023-03-11T12:05:57;17.80;99.90
73277;DHT22;61501;43.316;5.372;2023-03-11T12:11:17;17.60;99.90
73277;DHT22;61501;43.316;5.372;2023-03-11T12:14:16;18.10;99.90
73277;DHT22;61501;43.316;5.372;2023-03-11T12:16:56;18.70;99.90
73277;DHT22;61501;43.316;5.372;2023-03-11T12:19:42;18.30;99.90
73277;DHT22;61501;43.316;5.372;2023-03-11T12:30:53;17.80;99.90
73277;DHT22;61501;43.316;5.372;2023-03-11T12:33:30;17.50;99.90
73277;DHT22;61501;43.316;5.372;2023-03-11T12:35:58;17.30;99.90
73277;DHT22;61501;43.316;5.372;2023-03-11T12:38:34;17.10;99.90
73277;DHT22;61501;43.316;5.372;2023-03-11T12:46:06;17.00;99.90
73277;DHT22;61501;43.316;5.372;2023-03-11T12:53:55;16.90;99.90
73277;DHT22;61501;43.316;5.372;2023-03-11T13:10:19;17.50;99.90
73277;DHT22;61501;43.316;5.372;2023-03-11T13:12:51;17.40;99.90
73277;DHT22;61501;43.316;5.372;2023-03-11T13:18:13;16.90;99.90
73277;DHT22;61501;43.316;5.372;2023-03-11T13:31:22;17.90;99.90
73277;DHT22;61501;43.316;5.372;2023-03-11T13:34:16;18.50;99.90
73277;DHT22;61501;43.316;5.372;2023-03-11T13:37:08;19.30;99.90
73277;DHT22;61501;43.316;5.372;2023-03-11T13:42:16;19.60;99.30
73277;DHT22;61501;43.316;5.372;2023-03-11T13:44:44;18.40;99.90
73277;DHT22;61501;43.316;5.372;2023-03-11T13:47:18;17.70;99.90
73277;DHT22;61501;43.316;5.372;2023-03-11T13:50:08;17.80;99.90
73277;DHT22;61501;43.316;5.372;2023-03-11T13:52:43;17.60;99.90
73277;DHT22;61501;43.316;5.372;2023-03-11T13:55:18;18.10;99.90
73277;DHT22;61501;43.316;5.372;2023-03-11T13:57:55;17.70;99.90
73277;DHT22;61501;43.316;5.372;2023-03-11T14:00:23;17.30;99.90
73277;DHT22;61501;43.316;5.372;2023-03-11T14:02:52;16.90;99.90
73277;DHT22;61501;43.316;5.372;2023-03-11T14:05:29;16.80;99.90
73277;DHT22;61501;43.316;5.372;2023-03-11T14:08:20;16.80;99.90
73277;DHT22;61501;43.316;5.372;2023-03-11T14:10:57;16.90;99.90
73277;DHT22;61501;43.316;5.372;2023-03-11T14:13:29;17.20;99.90
73277;DHT22;61501;43.316;5.372;2023-03-11T14:16:03;17.20;99.90
73277;DHT22;61501;43.316;5.372;2023-03-11T14:18:31;16.60;99.90
73277;DHT22;61501;43.316;5.372;2023-03-11T14:20:57;16.50;99.90
73277;DHT22;61501;43.316;5.372;2023-03-11T14:23:39;16.40;99.90
73277;DHT22;61501;43.316;5.372;2023-03-11T14:26:08;16.40;99.90
73277;DHT22;61501;43.316;5.372;2023-03-11T14:28:40;16.40;99.90
73277;DHT22;61501;43.316;5.372;2023-03-11T14:31:06;16.40;99.90
73277;DHT22;61501;43.316;5.372;2023-03-11T14:33:32;16.50;99.90
73277;DHT22;61501;43.316;5.372;2023-03-11T14:36:03;16.60;99.90
73277;DHT22;61501;43.316;5.372;2023-03-11T14:38:31;16.80;99.90
73277;DHT22;61501;43.316;5.372;2023-03-11T14:40:59;16.80;99.90
73277;DHT22;61501;43.316;5.372;2023-03-11T14:43:36;16.80;99.90
73277;DHT22;61501;43.316;5.372;2023-03-11T14:46:03;16.80;99.90
73277;DHT22;61501;43.316;5.372;2023-03-11T14:48:31;16.70;99.90
73277;DHT22;61501;43.316;5.372;2023-03-11T14:51:03;16.60;99.90
73277;DHT22;61501;43.316;5.372;2023-03-11T14:53:46;16.60;99.90
73277;DHT22;61501;43.316;5.372;2023-03-11T14:56:18;16.70;99.90
73277;DHT22;61501;43.316;5.372;2023-03-11T14:59:05;16.80;99.90
73277;DHT22;61501;43.316;5.372;2023-03-11T15:01:36;17.00;99.90
73277;DHT22;61501;43.316;5.372;2023-03-11T15:04:28;17.40;99.90
73277;DHT22;61501;43.316;5.372;2023-03-11T15:06:57;17.70;99.90
73277;DHT22;61501;43.316;5.372;2023-03-11T15:09:25;17.20;99.90
73277;DHT22;61501;43.316;5.372;2023-03-11T15:12:00;17.10;99.90
73277;DHT22;61501;43.316;5.372;2023-03-11T15:14:34;17.10;99.90
73277;DHT22;61501;43.316;5.372;2023-03-11T15:19:41;17.20;99.90
73277;DHT22;61501;43.316;5.372;2023-03-11T15:22:26;17.10;99.90
73277;DHT22;61501;43.316;5.372;2023-03-11T15:24:56;17.00;99.90
73277;DHT22;61501;43.316;5.372;2023-03-11T15:27:35;17.10;99.90
73277;DHT22;61501;43.316;5.372;2023-03-11T15:30:03;18.00;99.90
73277;DHT22;61501;43.316;5.372;2023-03-11T15:32:40;18.60;99.90
73277;DHT22;61501;43.316;5.372;2023-03-11T15:37:32;18.10;99.90
73277;DHT22;61501;43.316;5.372;2023-03-11T15:42:45;17.40;99.90
73277;DHT22;61501;43.316;5.372;2023-03-11T15:45:16;17.30;99.90
73277;DHT22;61501;43.316;5.372;2023-03-11T15:47:43;17.40;99.90
73277;DHT22;61501;43.316;5.372;2023-03-11T15:50:18;18.10;99.90
73277;DHT22;61501;43.316;5.372;2023-03-11T15:52:45;18.40;99.90
73277;DHT22;61501;43.316;5.372;2023-03-11T15:55:13;18.30;99.90
73277;DHT22;61501;43.316;5.372;2023-03-11T15:57:39;18.40;99.90
73277;DHT22;61501;43.316;5.372;2023-03-11T16:00:13;18.90;99.90
73277;DHT22;61501;43.316;5.372;2023-03-11T16:02:39;19.30;99.40
73277;DHT22;61501;43.316;5.372;2023-03-11T16:05:12;19.30;99.50
73277;DHT22;61501;43.316;5.372;2023-03-11T16:07:38;19.00;99.90
73277;DHT22;61501;43.316;5.372;2023-03-11T16:10:04;18.50;99.90
73277;DHT22;61501;43.316;5.372;2023-03-11T16:12:30;18.60;99.90
73277;DHT22;61501;43.316;5.372;2023-03-11T16:14:55;18.60;99.90
73277;DHT22;61501;43.316;5.372;2023-03-11T16:17:21;18.80;99.90
73277;DHT22;61501;43.316;5.372;2023-03-11T16:19:47;18.80;99.90
73277;DHT22;61501;43.316;5.372;2023-03-11T16:22:19;18.70;99.90
73277;DHT22;61501;43.316;5.372;2023-03-11T16:24:48;18.50;99.90
73277;DHT22;61501;43.316;5.372;2023-03-11T16:27:16;18.50;99.90
73277;DHT22;61501;43.316;5.372;2023-03-11T16:29:43;18.70;99.90
73277;DHT22;61501;43.316;5.372;2023-03-11T16:32:09;18.70;99.90
73277;DHT22;61501;43.316;5.372;2023-03-11T16:34:37;18.80;99.90
73277;DHT22;61501;43.316;5.372;2023-03-11T16:37:04;18.60;99.90
73277;DHT22;61501;43.316;5.372;2023-03-11T16:39:31;18.90;99.90
73277;DHT22;61501;43.316;5.372;2023-03-11T16:41:56;18.60;99.90
73277;DHT22;61501;43.316;5.372;2023-03-11T16:44:22;18.90;99.90
73277;DHT22;61501;43.316;5.372;2023-03-11T16:46:48;18.90;99.90
73277;DHT22;61501;43.316;5.372;2023-03-11T16:49:13;19.60;99.50
73277;DHT22;61501;43.316;5.372;2023-03-11T16:51:39;19.80;98.00
73277;DHT22;61501;43.316;5.372;2023-03-11T16:54:05;19.50;99.30
73277;DHT22;61501;43.316;5.372;2023-03-11T16:56:31;19.30;99.80
73277;DHT22;61501;43.316;5.372;2023-03-11T16:58:56;19.40;99.20
73277;DHT22;61501;43.316;5.372;2023-03-11T17:01:22;19.70;97.80
73277;DHT22;61501;43.316;5.372;2023-03-11T17:03:49;19.50;99.00
73277;DHT22;61501;43.316;5.372;2023-03-11T17:06:16;19.30;99.90
73277;DHT22;61501;43.316;5.372;2023-03-11T17:08:42;19.50;98.70
73277;DHT22;61501;43.316;5.372;2023-03-11T17:11:15;19.70;96.50
73277;DHT22;61501;43.316;5.372;2023-03-11T17:13:41;19.60;96.20
73277;DHT22;61501;43.316;5.372;2023-03-11T17:16:06;19.60;95.30
73277;DHT22;61501;43.316;5.372;2023-03-11T17:18:32;20.00;92.40
73277;DHT22;61501;43.316;5.372;2023-03-11T17:20:57;20.30;90.50
73277;DHT22;61501;43.316;5.372;2023-03-11T17:23:25;20.40;89.60
73277;DHT22;61501;43.316;5.372;2023-03-11T17:25:50;20.10;90.30
73277;DHT22;61501;43.316;5.372;2023-03-11T17:28:16;20.10;89.20
73277;DHT22;61501;43.316;5.372;2023-03-11T17:30:43;20.10;89.10
73277;DHT22;61501;43.316;5.372;2023-03-11T17:33:09;20.00;89.30
73277;DHT22;61501;43.316;5.372;2023-03-11T17:35:35;19.90;89.70
73277;DHT22;61501;43.316;5.372;2023-03-11T17:38:00;19.70;89.40